Time,TemperatureF,DewpointF,PressureIn,WindDirection,WindDirectionDegrees,WindSpeedMPH,WindSpeedGustMPH,Humidity,HourlyPrecipIn,Conditions,Clouds,dailyrainin,SoftwareType,DateUTC
2013-08-22 00:00:00,77.0,52.0,-100.00,SSE,147,3.0,-999.0,42,0.00,,,-99.99,,2013-08-22 07:00:00,
2013-08-22 00:42:00,77.0,52.0,-100.00,SSE,147,3.0,-999.0,42,0.00,,,-99.99,,2013-08-22 07:42:00,
2013-08-22 00:52:00,77.0,52.0,-100.00,SSE,147,3.0,-999.0,42,0.00,,,-99.99,,2013-08-22 07:52:00,
2013-08-22 01:00:00,73.0,52.0,-100.00,SSE,162,4.0,-999.0,47,0.00,,,-99.99,,2013-08-22 08:00:00,
2013-08-22 01:43:00,73.0,52.0,-100.00,SSE,162,4.0,-999.0,47,0.00,,,-99.99,,2013-08-22 08:43:00,
2013-08-22 01:53:00,73.0,52.0,-100.00,SSE,162,4.0,-999.0,47,0.00,,,-99.99,,2013-08-22 08:53:00,
2013-08-22 02:00:00,70.0,50.0,-100.00,SSW,213,1.0,-999.0,48,0.00,,,-99.99,,2013-08-22 09:00:00,
2013-08-22 02:43:00,70.0,50.0,-100.00,SSW,213,1.0,-999.0,48,0.00,,,-99.99,,2013-08-22 09:43:00,
2013-08-22 02:54:00,70.0,50.0,-100.00,SSW,213,1.0,-999.0,48,0.00,,,-99.99,,2013-08-22 09:54:00,
2013-08-22 03:00:00,70.0,49.0,-100.00,SSE,155,2.0,-999.0,46,0.00,,,-99.99,,2013-08-22 10:00:00,
2013-08-22 03:42:00,70.0,49.0,-100.00,SSE,155,2.0,-999.0,46,0.00,,,-99.99,,2013-08-22 10:42:00,
2013-08-22 05:00:00,67.0,51.0,-100.00,SSW,206,3.0,-999.0,57,0.00,,,-99.99,,2013-08-22 12:00:00,
2013-08-22 05:42:00,67.0,51.0,-100.00,SSW,206,3.0,-999.0,57,0.00,,,-99.99,,2013-08-22 12:42:00,
2013-08-22 05:52:00,67.0,51.0,-100.00,SSW,206,3.0,-999.0,57,0.00,,,-99.99,,2013-08-22 12:52:00,
2013-08-22 06:00:00,64.0,54.0,-100.00,South,189,5.0,-999.0,69,0.00,,,-99.99,,2013-08-22 13:00:00,
2013-08-22 06:42:00,64.0,54.0,-100.00,South,189,5.0,-999.0,69,0.00,,,-99.99,,2013-08-22 13:42:00,
2013-08-22 06:52:00,64.0,54.0,-100.00,South,189,5.0,-999.0,69,0.00,,,-99.99,,2013-08-22 13:52:00,
2013-08-22 07:00:00,64.0,53.0,-100.00,SE,143,4.0,-999.0,67,0.00,,,-99.99,,2013-08-22 14:00:00,
2013-08-22 07:42:00,64.0,53.0,-100.00,SE,143,4.0,-999.0,67,0.00,,,-99.99,,2013-08-22 14:42:00,
2013-08-22 07:52:00,64.0,53.0,-100.00,SE,143,4.0,-999.0,67,0.00,,,-99.99,,2013-08-22 14:52:00,
2013-08-22 08:00:00,66.0,52.0,-100.00,South,186,3.0,-999.0,60,0.00,,,-99.99,,2013-08-22 15:00:00,
2013-08-22 08:43:00,66.0,52.0,-100.00,South,186,3.0,-999.0,60,0.00,,,-99.99,,2013-08-22 15:43:00,
2013-08-22 08:55:00,66.0,52.0,-100.00,South,186,3.0,-999.0,60,0.00,,,-99.99,,2013-08-22 15:55:00,
2013-08-22 09:00:00,71.0,54.0,-100.00,WSW,242,5.0,-999.0,55,0.00,,,-99.99,,2013-08-22 16:00:00,
2013-08-22 09:43:00,71.0,54.0,-100.00,WSW,242,5.0,-999.0,55,0.00,,,-99.99,,2013-08-22 16:43:00,
2013-08-22 09:54:00,71.0,54.0,-100.00,WSW,242,5.0,-999.0,55,0.00,,,-99.99,,2013-08-22 16:54:00,
2013-08-22 10:00:00,76.0,54.0,-100.00,South,185,5.0,-999.0,47,0.00,,,-99.99,,2013-08-22 17:00:00,
2013-08-22 10:43:00,76.0,54.0,-100.00,South,185,5.0,-999.0,47,0.00,,,-99.99,,2013-08-22 17:43:00,
2013-08-22 10:53:00,76.0,54.0,-100.00,South,185,5.0,-999.0,47,0.00,,,-99.99,,2013-08-22 17:53:00,
2013-08-22 11:00:00,80.0,54.0,-100.00,West,281,3.0,-999.0,40,0.00,,,-99.99,,2013-08-22 18:00:00,
2013-08-22 11:43:00,80.0,54.0,-100.00,West,281,3.0,-999.0,40,0.00,,,-99.99,,2013-08-22 18:43:00,
2013-08-22 11:52:00,80.0,54.0,-100.00,West,281,3.0,-999.0,40,0.00,,,-99.99,,2013-08-22 18:52:00,
2013-08-22 12:00:00,85.0,54.0,-100.00,WNW,301,5.0,-999.0,35,0.00,,,-99.99,,2013-08-22 19:00:00,
2013-08-22 12:42:00,85.0,54.0,-100.00,WNW,301,5.0,-999.0,35,0.00,,,-99.99,,2013-08-22 19:42:00,
2013-08-22 12:53:00,85.0,54.0,-100.00,WNW,301,5.0,-999.0,35,0.00,,,-99.99,,2013-08-22 19:53:00,
2013-08-22 13:00:00,87.0,53.0,-100.00,West,269,8.0,-999.0,31,0.00,,,-99.99,,2013-08-22 20:00:00,
2013-08-22 13:42:00,87.0,53.0,-100.00,West,269,8.0,-999.0,31,0.00,,,-99.99,,2013-08-22 20:42:00,
2013-08-22 13:52:00,87.0,53.0,-100.00,West,269,8.0,-999.0,31,0.00,,,-99.99,,2013-08-22 20:52:00,
2013-08-22 14:00:00,90.0,49.0,-100.00,NNW,335,7.0,-999.0,24,0.00,,,-99.99,,2013-08-22 21:00:00,
2013-08-22 14:44:00,90.0,49.0,-100.00,NNW,335,7.0,-999.0,24,0.00,,,-99.99,,2013-08-22 21:44:00,
2013-08-22 14:54:00,90.0,49.0,-100.00,NNW,335,7.0,-999.0,24,0.00,,,-99.99,,2013-08-22 21:54:00,
2013-08-22 15:00:00,93.0,48.0,-100.00,West,277,3.0,-999.0,21,0.00,,,-99.99,,2013-08-22 22:00:00,
2013-08-22 15:42:00,93.0,48.0,-100.00,West,277,3.0,-999.0,21,0.00,,,-99.99,,2013-08-22 22:42:00,
2013-08-22 15:53:00,93.0,48.0,-100.00,West,277,3.0,-999.0,21,0.00,,,-99.99,,2013-08-22 22:53:00,
2013-08-22 16:00:00,96.0,49.0,-100.00,NW,318,6.0,-999.0,20,0.00,,,-99.99,,2013-08-22 23:00:00,
2013-08-22 16:42:00,96.0,49.0,-100.00,NW,318,6.0,-999.0,20,0.00,,,-99.99,,2013-08-22 23:42:00,
2013-08-22 16:52:00,96.0,49.0,-100.00,NW,318,6.0,-999.0,20,0.00,,,-99.99,,2013-08-22 23:52:00,
2013-08-22 17:00:00,95.0,49.0,-100.00,North,349,4.0,-999.0,21,0.00,,,-99.99,,2013-08-23 00:00:00,
2013-08-22 17:42:00,95.0,49.0,-100.00,North,349,4.0,-999.0,21,0.00,,,-99.99,,2013-08-23 00:42:00,
2013-08-22 17:52:00,95.0,49.0,-100.00,North,349,4.0,-999.0,21,0.00,,,-99.99,,2013-08-23 00:52:00,
2013-08-22 18:00:00,96.0,44.0,-100.00,NNW,330,5.0,-999.0,16,0.00,,,-99.99,,2013-08-23 01:00:00,
2013-08-22 18:42:00,96.0,44.0,-100.00,NNW,330,5.0,-999.0,16,0.00,,,-99.99,,2013-08-23 01:42:00,
2013-08-22 18:52:00,96.0,44.0,-100.00,NNW,330,5.0,-999.0,16,0.00,,,-99.99,,2013-08-23 01:52:00,
2013-08-22 19:00:00,95.0,42.0,-100.00,NNW,338,6.0,-999.0,16,0.00,,,-99.99,,2013-08-23 02:00:00,
2013-08-22 19:43:00,95.0,42.0,-100.00,NNW,338,6.0,-999.0,16,0.00,,,-99.99,,2013-08-23 02:43:00,
2013-08-22 19:52:00,95.0,42.0,-100.00,NNW,338,6.0,-999.0,16,0.00,,,-99.99,,2013-08-23 02:52:00,
2013-08-22 20:00:00,91.0,46.0,-100.00,NNW,328,3.0,-999.0,21,0.00,,,-99.99,,2013-08-23 03:00:00,
2013-08-22 20:44:00,91.0,46.0,-100.00,NNW,328,3.0,-999.0,21,0.00,,,-99.99,,2013-08-23 03:44:00,
2013-08-22 20:55:00,91.0,46.0,-100.00,NNW,328,3.0,-999.0,21,0.00,,,-99.99,,2013-08-23 03:55:00,
2013-08-22 21:00:00,85.0,52.0,-100.00,SE,145,2.0,-999.0,32,0.00,,,-99.99,,2013-08-23 04:00:00,
2013-08-22 21:43:00,85.0,52.0,-100.00,SE,145,2.0,-999.0,32,0.00,,,-99.99,,2013-08-23 04:43:00,
2013-08-22 21:54:00,85.0,52.0,-100.00,SE,145,2.0,-999.0,32,0.00,,,-99.99,,2013-08-23 04:54:00,
2013-08-22 22:00:00,78.0,52.0,-100.00,SSE,156,1.0,-999.0,40,0.00,,,-99.99,,2013-08-23 05:00:00,
2013-08-22 22:42:00,78.0,52.0,-100.00,SSE,156,1.0,-999.0,40,0.00,,,-99.99,,2013-08-23 05:42:00,
2013-08-22 22:52:00,78.0,52.0,-100.00,SSE,156,1.0,-999.0,40,0.00,,,-99.99,,2013-08-23 05:52:00,
2013-08-22 23:00:00,76.0,55.0,-100.00,NNW,348,4.0,-999.0,47,0.00,,,-99.99,,2013-08-23 06:00:00,
2013-08-22 23:42:00,76.0,55.0,-100.00,NNW,348,4.0,-999.0,47,0.00,,,-99.99,,2013-08-23 06:42:00,
2013-08-22 23:52:00,76.0,55.0,-100.00,NNW,348,4.0,-999.0,47,0.00,,,-99.99,,2013-08-23 06:52:00,